METAR Data
IDs: Format: Raw Decoded Include TAF

Data at: 1421 UTC 16 Aug 2022

METAR for:KHDN (Hayden/Yampa Valley, CO, US)
Text:KHDN 161356Z 00000KT 10SM CLR 16/11 A3030 RMK AO2 SLP192 T01560111
Temperature: 15.6°C ( 60°F)
Dewpoint: 11.1°C ( 52°F) [RH = 75%]
Pressure (altimeter):30.30 inches Hg (1026.2 mb) [Sea level pressure: 1019.2 mb]
Winds:calm
Visibility:10 or more sm (16+ km)
Ceiling:at least 12,000 feet AGL
Clouds:sky clear below 12,000 feet AGL